Time;durP1;ratioP1;P1;durP2;ratioP2;P2;SDS_P1;SDS_P2;PMS_P1;PMS_P2;Temp;Humidity;BMP_temperature;BMP_pressure;BME280_temperature;BME280_humidity;BME280_pressure;Samples;Min_cycle;Max_cycle;Signal;HPM_P1;HPM_P2
2023/01/03 00:00:33;;;;;;;11.52;3.72;;;5.10;99.90;;;;;;5053028;28;20048;-72
2023/01/03 00:02:59;;;;;;;10.25;3.40;;;5.10;99.90;;;;;;5041401;28;20041;-72
2023/01/03 00:05:24;;;;;;;9.05;2.88;;;5.10;99.90;;;;;;5051099;28;20063;-72
2023/01/03 00:07:50;;;;;;;8.93;3.33;;;5.10;99.90;;;;;;5033159;28;20032;-72
2023/01/03 00:10:16;;;;;;;10.23;3.20;;;5.10;99.90;;;;;;5051823;28;20043;-72
2023/01/03 00:12:41;;;;;;;8.68;3.50;;;5.10;99.90;;;;;;5051428;28;20068;-72
2023/01/03 00:15:07;;;;;;;7.50;3.38;;;5.00;99.90;;;;;;5052726;28;20041;-72
2023/01/03 00:17:33;;;;;;;8.75;3.25;;;5.00;99.90;;;;;;5037199;28;20044;-72
2023/01/03 00:19:59;;;;;;;8.10;3.00;;;5.00;99.90;;;;;;5053762;28;20041;-72
2023/01/03 00:22:25;;;;;;;10.57;3.53;;;5.00;99.90;;;;;;5052800;28;20061;-72
2023/01/03 00:24:51;;;;;;;8.43;3.03;;;5.00;99.90;;;;;;5037270;28;20048;-72
2023/01/03 00:27:17;;;;;;;6.25;2.80;;;4.90;99.90;;;;;;5036161;28;20040;-72
2023/01/03 00:29:43;;;;;;;7.88;3.25;;;4.90;99.90;;;;;;5036358;28;20045;-72
2023/01/03 00:32:09;;;;;;;7.15;2.88;;;4.90;99.90;;;;;;5036292;28;20524;-72
2023/01/03 00:34:35;;;;;;;8.68;2.60;;;4.90;99.90;;;;;;5053466;28;20041;-73
2023/01/03 00:37:01;;;;;;;7.68;3.30;;;4.90;99.90;;;;;;5052182;28;20492;-72
2023/01/03 00:39:27;;;;;;;7.93;3.40;;;4.80;99.90;;;;;;5042939;28;20045;-72
2023/01/03 00:41:53;;;;;;;10.82;3.17;;;4.80;99.90;;;;;;5048172;28;20489;-72
2023/01/03 00:44:19;;;;;;;7.20;3.15;;;4.80;99.90;;;;;;5036636;28;20045;-72
2023/01/03 00:46:44;;;;;;;6.97;2.85;;;4.70;99.90;;;;;;5036217;28;20039;-72
2023/01/03 00:49:10;;;;;;;9.98;3.17;;;4.60;99.90;;;;;;5036644;28;20037;-72
2023/01/03 00:51:39;;;;;;;8.73;3.30;;;4.60;99.90;;;;;;5052440;28;20408;-72
2023/01/03 00:54:07;;;;;;;7.65;3.10;;;4.60;99.90;;;;;;5036438;28;20041;-72
2023/01/03 00:56:36;;;;;;;7.72;3.08;;;4.60;99.90;;;;;;5052099;28;20493;-72
2023/01/03 00:59:03;;;;;;;7.75;3.13;;;4.60;99.90;;;;;;5053223;28;20055;-72
2023/01/03 01:01:31;;;;;;;9.73;3.80;;;4.60;99.90;;;;;;5052262;28;20476;-72
2023/01/03 01:04:10;;;;;;;8.55;2.92;;;4.60;99.90;;;;;;5052734;28;20115;-72
2023/01/03 01:06:39;;;;;;;6.63;3.22;;;4.60;99.90;;;;;;5051471;28;20088;-72
2023/01/03 01:09:08;;;;;;;8.02;2.78;;;4.60;99.90;;;;;;5040338;28;20040;-72
2023/01/03 01:11:34;;;;;;;6.90;2.75;;;4.60;99.90;;;;;;5035149;28;20090;-72
2023/01/03 01:13:59;;;;;;;6.80;2.83;;;4.60;99.90;;;;;;5036222;28;20044;-72
2023/01/03 01:16:30;;;;;;;7.28;2.90;;;4.60;99.90;;;;;;5035449;28;20048;-72
2023/01/03 01:18:59;;;;;;;11.40;2.80;;;4.60;99.90;;;;;;5035509;28;20408;-72
2023/01/03 01:21:30;;;;;;;7.43;2.53;;;4.50;99.90;;;;;;5035036;28;20116;-72
2023/01/03 01:23:57;;;;;;;7.20;2.70;;;4.50;99.90;;;;;;5035229;28;20067;-72
2023/01/03 01:26:24;;;;;;;8.85;2.70;;;4.50;99.90;;;;;;5032661;28;20383;-72
2023/01/03 01:28:51;;;;;;;9.25;3.42;;;4.50;99.90;;;;;;5032590;28;20045;-72
2023/01/03 01:31:19;;;;;;;7.20;2.58;;;4.50;99.90;;;;;;5016331;28;20037;-72
2023/01/03 01:33:45;;;;;;;6.68;2.65;;;4.50;99.90;;;;;;5032636;28;20045;-72
2023/01/03 01:36:15;;;;;;;9.38;3.40;;;4.50;99.90;;;;;;5040062;28;20033;-72
2023/01/03 01:38:41;;;;;;;7.70;3.00;;;4.50;99.90;;;;;;5034740;28;20062;-72
2023/01/03 01:41:06;;;;;;;10.57;3.75;;;4.50;99.90;;;;;;5034117;28;20128;-72
2023/01/03 01:46:26;;;;;;;9.75;3.92;;;4.60;99.90;;;;;;5051470;28;20057;-72
2023/01/03 01:48:58;;;;;;;7.95;3.30;;;4.60;99.90;;;;;;5052126;28;20083;-72
2023/01/03 01:51:26;;;;;;;9.43;3.70;;;4.60;99.90;;;;;;5040361;28;20556;-72
2023/01/03 01:53:54;;;;;;;7.20;3.50;;;4.50;99.90;;;;;;5015805;28;20398;-72
2023/01/03 01:56:25;;;;;;;9.27;4.15;;;4.60;99.90;;;;;;5032155;28;20048;-72
2023/01/03 01:58:52;;;;;;;8.65;3.88;;;4.70;99.90;;;;;;5032169;28;20103;-72
2023/01/03 02:01:20;;;;;;;9.48;3.70;;;4.70;99.90;;;;;;5041799;28;20114;-72
2023/01/03 02:03:54;;;;;;;9.65;3.90;;;4.60;99.90;;;;;;5035199;28;20064;-72
2023/01/03 02:06:20;;;;;;;8.48;3.90;;;4.60;99.90;;;;;;5032729;28;20090;-72
2023/01/03 02:08:46;;;;;;;12.48;4.65;;;4.70;99.90;;;;;;5035005;28;20041;-72
2023/01/03 02:11:33;;;;;;;10.05;4.55;;;4.70;99.90;;;;;;5050865;28;20045;-72
2023/01/03 02:14:15;;;;;;;9.27;4.63;;;4.70;99.90;;;;;;5035161;28;20041;-72
2023/01/03 02:16:47;;;;;;;10.05;4.57;;;4.60;99.90;;;;;;5035267;28;20124;-72
2023/01/03 02:19:31;;;;;;;9.80;4.88;;;4.70;99.90;;;;;;5051269;28;20041;-72
2023/01/03 02:22:23;;;;;;;10.43;4.78;;;4.60;99.90;;;;;;5051594;28;20496;-72
2023/01/03 02:25:30;;;;;;;10.35;4.93;;;4.60;99.90;;;;;;5051861;28;20040;-72
2023/01/03 02:27:55;;;;;;;11.70;5.15;;;4.60;99.90;;;;;;5035181;28;20056;-73
2023/01/03 02:30:35;;;;;;;12.48;5.72;;;4.70;99.90;;;;;;5050692;28;20049;-72
2023/01/03 02:33:15;;;;;;;11.32;5.25;;;4.70;99.90;;;;;;5034002;28;20044;-72
2023/01/03 02:36:07;;;;;;;11.82;5.22;;;4.60;99.90;;;;;;5035331;28;20119;-72
2023/01/03 02:38:50;;;;;;;11.18;5.68;;;4.60;99.90;;;;;;5004963;28;20049;-72
2023/01/03 02:41:37;;;;;;;12.35;5.60;;;4.60;99.90;;;;;;5067495;28;20124;-72
2023/01/03 02:44:18;;;;;;;12.65;5.70;;;4.50;99.90;;;;;;5053915;28;20044;-72
2023/01/03 02:47:07;;;;;;;11.00;5.32;;;4.60;99.90;;;;;;5039195;28;20076;-72
2023/01/03 02:49:42;;;;;;;11.82;5.38;;;4.60;99.90;;;;;;5039110;28;20047;-72
2023/01/03 02:52:39;;;;;;;11.50;6.57;;;4.60;99.90;;;;;;5037977;28;20041;-72
2023/01/03 02:55:11;;;;;;;10.75;5.78;;;4.60;99.90;;;;;;5026449;28;20060;-72
2023/01/03 02:57:39;;;;;;;;;;;4.60;99.90;;;;;;5055759;28;20045;-72
2023/01/03 03:00:18;;;;;;;13.32;6.20;;;4.60;99.90;;;;;;5054742;28;20337;-72
2023/01/03 03:02:50;;;;;;;13.10;6.50;;;4.50;99.90;;;;;;5037573;28;20056;-72
2023/01/03 03:05:24;;;;;;;11.68;6.38;;;4.50;99.90;;;;;;5038504;28;20564;-72
2023/01/03 03:07:50;;;;;;;11.73;6.65;;;4.50;99.90;;;;;;5053956;28;20029;-72
2023/01/03 03:13:15;;;;;;;10.70;5.82;;;4.50;99.90;;;;;;5053333;28;20065;-72
2023/01/03 03:15:53;;;;;;;11.80;6.47;;;4.50;99.90;;;;;;5068203;28;20410;-72
2023/01/03 03:18:27;;;;;;;12.50;6.80;;;4.50;99.90;;;;;;5050066;28;20120;-72
2023/01/03 03:26:38;;;;;;;14.13;6.50;;;4.40;99.90;;;;;;5054781;28;20049;-72
2023/01/03 03:29:10;;;;;;;13.23;7.82;;;4.30;99.90;;;;;;5054744;28;20045;-72
2023/01/03 03:31:40;;;;;;;14.07;7.65;;;4.30;99.90;;;;;;5053831;28;20093;-72
2023/01/03 03:34:15;;;;;;;13.15;7.75;;;4.30;99.90;;;;;;5053794;28;20037;-72
2023/01/03 03:36:55;;;;;;;13.23;8.43;;;4.30;99.90;;;;;;5054015;28;20041;-72
2023/01/03 03:45:22;;;;;;;13.88;7.95;;;4.20;99.90;;;;;;5054459;28;20136;-72
2023/01/03 03:47:54;;;;;;;13.50;7.45;;;4.10;99.90;;;;;;5054415;28;20120;-72
2023/01/03 03:50:26;;;;;;;13.68;7.60;;;4.10;99.90;;;;;;5053702;28;20087;-72
2023/01/03 03:52:57;;;;;;;15.20;7.75;;;4.10;99.90;;;;;;5037053;28;20090;-72
2023/01/03 03:55:31;;;;;;;16.58;8.50;;;4.20;99.90;;;;;;5053623;28;20076;-72
2023/01/03 03:58:02;;;;;;;15.57;7.75;;;4.20;99.90;;;;;;5037548;28;20141;-72
2023/01/03 04:00:33;;;;;;;13.25;7.70;;;4.20;99.90;;;;;;5053364;28;20041;-72
2023/01/03 04:03:03;;;;;;;14.57;8.20;;;4.10;99.90;;;;;;5049801;28;20049;-72
2023/01/03 04:05:33;;;;;;;15.38;7.90;;;4.10;99.90;;;;;;5037184;28;20079;-72
2023/01/03 04:07:59;;;;;;;14.15;8.43;;;4.20;99.90;;;;;;5048658;28;20493;-72
2023/01/03 04:10:24;;;;;;;14.48;8.48;;;4.20;99.90;;;;;;5033066;28;20047;-72
2023/01/03 04:12:51;;;;;;;16.75;9.02;;;4.20;99.90;;;;;;5059931;28;20029;-72
2023/01/03 04:15:17;;;;;;;18.50;9.15;;;4.20;99.90;;;;;;5037111;28;20063;-72
2023/01/03 04:17:42;;;;;;;15.90;8.52;;;4.20;99.90;;;;;;5035245;28;20540;-72
2023/01/03 04:20:09;;;;;;;17.05;9.40;;;4.30;99.90;;;;;;5052134;28;20493;-72
2023/01/03 04:22:35;;;;;;;17.00;9.52;;;4.30;99.90;;;;;;5043634;28;20037;-72
2023/01/03 04:25:00;;;;;;;17.42;9.43;;;4.30;99.90;;;;;;5036666;28;20044;-72
2023/01/03 04:27:27;;;;;;;17.23;10.50;;;4.30;99.90;;;;;;5051296;28;20072;-73
2023/01/03 04:29:52;;;;;;;18.00;11.02;;;4.20;99.90;;;;;;5039971;28;20045;-72
2023/01/03 04:32:18;;;;;;;18.90;10.95;;;4.20;99.90;;;;;;5047989;28;20443;-72
2023/01/03 04:34:44;;;;;;;19.42;10.25;;;4.20;99.90;;;;;;5035624;28;20044;-72
2023/01/03 04:37:09;;;;;;;16.85;10.63;;;4.20;99.90;;;;;;5056304;28;20497;-72
2023/01/03 04:39:35;;;;;;;17.38;10.55;;;4.20;99.90;;;;;;5048865;28;20068;-73
2023/01/03 04:44:00;;;;;;;18.40;10.73;;;4.20;99.90;;;;;;5053387;28;20036;-73
2023/01/03 04:44:46;;;;;;;20.52;11.65;;;4.20;99.90;;;;;;5053421;28;20393;-72
2023/01/03 04:47:11;;;;;;;20.58;10.65;;;4.20;99.90;;;;;;5036665;28;20043;-71
2023/01/03 04:49:37;;;;;;;18.65;10.88;;;4.20;99.90;;;;;;5053430;28;20064;-71
2023/01/03 04:52:03;;;;;;;18.42;10.52;;;4.20;99.90;;;;;;5053831;28;20044;-71
2023/01/03 04:54:28;;;;;;;17.92;10.70;;;4.20;99.90;;;;;;5053048;28;20477;-73
2023/01/03 04:56:54;;;;;;;18.83;11.00;;;4.20;99.90;;;;;;5053358;28;20075;-72
2023/01/03 04:59:19;;;;;;;17.02;10.25;;;4.20;99.90;;;;;;5053223;28;20068;-72
2023/01/03 05:01:50;;;;;;;21.58;11.75;;;4.30;99.90;;;;;;5052996;28;20112;-71
2023/01/03 05:04:17;;;;;;;17.20;10.85;;;4.30;99.90;;;;;;5036199;28;20056;-72
2023/01/03 05:06:42;;;;;;;20.83;11.05;;;4.30;99.90;;;;;;5050694;28;20044;-72
2023/01/03 05:09:08;;;;;;;18.13;10.85;;;4.30;99.90;;;;;;5061585;28;20392;-72
2023/01/03 05:11:33;;;;;;;20.90;11.23;;;4.30;99.90;;;;;;5072970;28;20051;-72
2023/01/03 05:13:59;;;;;;;21.08;11.68;;;4.40;99.90;;;;;;5050761;28;20123;-72
2023/01/03 05:16:24;;;;;;;20.50;12.25;;;4.30;99.90;;;;;;5049134;28;20033;-72
2023/01/03 05:18:50;;;;;;;18.58;11.55;;;4.30;99.90;;;;;;5052644;28;20037;-72
2023/01/03 05:26:48;;;;;;;19.80;11.20;;;4.30;99.90;;;;;;5051571;28;20128;-72
2023/01/03 05:29:18;;;;;;;21.58;11.93;;;4.30;99.90;;;;;;5052668;28;20397;-72
2023/01/03 05:31:43;;;;;;;21.35;12.95;;;4.30;99.90;;;;;;5050808;28;20044;-72
2023/01/03 05:34:09;;;;;;;16.58;10.57;;;4.30;99.90;;;;;;5052249;28;20383;-73
2023/01/03 05:36:35;;;;;;;18.92;11.20;;;4.40;99.90;;;;;;5044338;28;20029;-72
2023/01/03 05:39:00;;;;;;;20.58;11.57;;;4.40;99.90;;;;;;5052561;28;20041;-73
2023/01/03 05:44:10;;;;;;;19.02;11.73;;;4.50;99.90;;;;;;5051232;28;20080;-73
2023/01/03 05:46:36;;;;;;;19.20;11.27;;;4.50;99.90;;;;;;5051640;28;20069;-73
2023/01/03 05:49:01;;;;;;;20.60;11.57;;;4.50;99.90;;;;;;5037926;28;20041;-72
2023/01/03 05:51:27;;;;;;;19.02;11.40;;;4.60;99.90;;;;;;5052123;28;20049;-73
2023/01/03 05:53:52;;;;;;;19.67;11.25;;;4.50;99.90;;;;;;5048840;28;20040;-73
2023/01/03 05:56:18;;;;;;;21.42;12.05;;;4.50;99.90;;;;;;5030958;28;20037;-72
2023/01/03 05:58:44;;;;;;;20.13;12.55;;;4.50;99.90;;;;;;5051440;28;20115;-72
2023/01/03 06:01:10;;;;;;;20.58;12.18;;;4.50;99.90;;;;;;5043265;28;20045;-73
2023/01/03 06:03:36;;;;;;;20.20;11.45;;;4.50;99.90;;;;;;5050791;28;20095;-73
2023/01/03 06:06:05;;;;;;;19.25;11.15;;;4.50;99.90;;;;;;5046190;28;20078;-72
2023/01/03 06:08:32;;;;;;;19.48;11.85;;;4.40;99.90;;;;;;5058980;28;20120;-72
2023/01/03 06:10:57;;;;;;;21.98;11.85;;;4.30;99.90;;;;;;5048350;28;20037;-73
2023/01/03 06:13:23;;;;;;;20.65;12.00;;;4.30;99.90;;;;;;5047096;28;20041;-72
2023/01/03 06:18:34;;;;;;;23.23;12.52;;;4.30;99.90;;;;;;5056051;28;20116;-72
2023/01/03 06:21:03;;;;;;;20.80;12.25;;;4.30;99.90;;;;;;5057628;28;20029;-72
2023/01/03 06:23:28;;;;;;;21.38;12.18;;;4.20;99.90;;;;;;5040905;28;20049;-73
2023/01/03 06:25:54;;;;;;;20.73;12.20;;;4.20;99.90;;;;;;5056419;28;20115;-72
2023/01/03 06:28:19;;;;;;;18.98;11.75;;;4.20;99.90;;;;;;5039889;28;20051;-72
2023/01/03 06:30:45;;;;;;;21.15;12.80;;;4.20;99.90;;;;;;5057375;28;20040;-72
2023/01/03 06:33:11;;;;;;;22.38;11.85;;;4.20;99.90;;;;;;5057607;28;20497;-72
2023/01/03 06:35:40;;;;;;;21.15;12.18;;;4.10;99.90;;;;;;5055572;28;20091;-72
2023/01/03 06:38:05;;;;;;;19.65;12.55;;;4.10;99.90;;;;;;5040052;28;20025;-72
2023/01/03 06:40:31;;;;;;;20.05;11.25;;;4.10;99.90;;;;;;5047482;28;20041;-73
2023/01/03 06:42:57;;;;;;;19.13;11.85;;;4.10;99.90;;;;;;5050780;28;20516;-73
2023/01/03 06:53:41;;;;;;;19.98;10.95;;;3.90;99.90;;;;;;5055739;28;20049;-73
2023/01/03 06:56:07;;;;;;;21.00;11.30;;;3.80;99.90;;;;;;5053498;28;20439;-73
2023/01/03 06:58:33;;;;;;;19.63;11.32;;;3.80;99.90;;;;;;5041003;28;20037;-73
2023/01/03 07:01:02;;;;;;;21.42;12.18;;;3.80;99.90;;;;;;5049127;28;20056;-73
2023/01/03 07:03:28;;;;;;;20.48;12.30;;;3.80;99.90;;;;;;5052311;28;20643;-73
2023/01/03 07:05:54;;;;;;;20.70;12.70;;;3.80;99.90;;;;;;5055998;28;20044;-73
2023/01/03 07:08:19;;;;;;;23.27;13.05;;;3.80;99.90;;;;;;5057204;28;20127;-73
2023/01/03 07:10:45;;;;;;;24.65;14.02;;;3.80;99.90;;;;;;5045618;28;20037;-73
2023/01/03 07:15:54;;;;;;;20.90;12.95;;;3.80;99.90;;;;;;5056759;28;20037;-72
2023/01/03 07:18:20;;;;;;;21.42;13.25;;;3.80;99.90;;;;;;5041972;28;20547;-73
2023/01/03 07:20:46;;;;;;;21.70;12.65;;;3.80;99.90;;;;;;5073450;28;20044;-73
2023/01/03 07:23:12;;;;;;;20.05;11.77;;;3.80;99.90;;;;;;5057178;28;20436;-73
2023/01/03 07:25:40;;;;;;;21.02;12.52;;;3.80;99.90;;;;;;5039037;28;20367;-73
2023/01/03 07:28:07;;;;;;;20.20;12.40;;;3.80;99.90;;;;;;5057402;28;20041;-72
2023/01/03 07:30:37;;;;;;;18.88;12.02;;;3.80;99.90;;;;;;5053967;28;20490;-73
2023/01/03 07:33:02;;;;;;;20.40;12.52;;;3.70;99.90;;;;;;5054151;28;20072;-73
2023/01/03 07:35:31;;;;;;;22.63;12.57;;;3.70;99.90;;;;;;5035476;28;20090;-72
2023/01/03 07:37:57;;;;;;;21.05;12.90;;;3.70;99.90;;;;;;5053772;28;20090;-72
2023/01/03 07:40:22;;;;;;;20.30;12.43;;;3.70;99.90;;;;;;5050263;28;20378;-73
2023/01/03 07:45:32;;;;;;;19.67;12.00;;;3.70;99.90;;;;;;5038146;28;20713;-73
2023/01/03 07:47:57;;;;;;;21.85;12.45;;;3.70;99.90;;;;;;5042938;28;21583;-73
2023/01/03 07:50:23;;;;;;;20.40;12.82;;;3.70;99.90;;;;;;5052842;28;20041;-72
2023/01/03 07:52:49;;;;;;;18.55;11.82;;;3.60;99.90;;;;;;5035173;28;20032;-72
2023/01/03 07:55:14;;;;;;;21.38;11.98;;;3.60;99.90;;;;;;5040489;28;20037;-72
2023/01/03 07:57:40;;;;;;;21.70;14.07;;;3.60;99.90;;;;;;5036452;28;20037;-72
2023/01/03 08:00:06;;;;;;;22.13;13.82;;;3.60;99.90;;;;;;5034802;28;20040;-72
2023/01/03 08:02:34;;;;;;;20.42;13.02;;;3.60;99.90;;;;;;5044179;28;20060;-72
2023/01/03 08:04:59;;;;;;;20.77;13.65;;;3.60;99.90;;;;;;5052674;28;20075;-72
2023/01/03 08:07:25;;;;;;;17.88;11.75;;;3.60;99.90;;;;;;5036518;28;20037;-72
2023/01/03 08:15:19;;;;;;;21.10;12.88;;;3.70;99.90;;;;;;5055283;28;20103;-72
2023/01/03 08:17:44;;;;;;;19.55;12.05;;;3.60;99.90;;;;;;5037969;28;20574;-72
2023/01/03 08:20:10;;;;;;;19.20;12.27;;;3.60;99.90;;;;;;5033981;28;20457;-73
2023/01/03 08:22:35;;;;;;;18.92;12.13;;;3.60;99.90;;;;;;5052474;28;20032;-72
2023/01/03 08:25:01;;;;;;;19.90;12.38;;;3.60;99.90;;;;;;5052263;28;20401;-73
2023/01/03 08:27:26;;;;;;;19.40;11.63;;;3.70;99.90;;;;;;5050023;28;20044;-73
2023/01/03 08:29:52;;;;;;;17.77;11.30;;;3.60;99.90;;;;;;5053170;28;20460;-73
2023/01/03 08:32:18;;;;;;;18.85;11.77;;;3.60;99.90;;;;;;5036094;28;20056;-72
2023/01/03 08:34:47;;;;;;;16.73;11.07;;;3.60;99.90;;;;;;5052686;28;20045;-72
2023/01/03 08:37:15;;;;;;;17.85;11.27;;;3.60;99.90;;;;;;5048746;28;20497;-72
2023/01/03 08:39:53;;;;;;;16.13;10.73;;;3.60;99.90;;;;;;5067595;28;20092;-73
2023/01/03 08:42:22;;;;;;;17.20;11.30;;;3.60;99.90;;;;;;5050138;28;20029;-73
2023/01/03 08:44:51;;;;;;;14.55;10.20;;;3.60;99.90;;;;;;5051214;28;20052;-73
2023/01/03 08:47:17;;;;;;;13.80;8.88;;;3.60;99.90;;;;;;5034825;28;20047;-73
2023/01/03 08:49:43;;;;;;;12.48;8.35;;;3.60;99.90;;;;;;5051014;28;20036;-73
2023/01/03 08:52:08;;;;;;;13.55;8.63;;;3.60;99.90;;;;;;5050041;28;20067;-73
2023/01/03 08:54:34;;;;;;;12.57;8.63;;;3.50;99.90;;;;;;5035597;28;20044;-72
2023/01/03 08:57:00;;;;;;;12.60;8.18;;;3.40;99.90;;;;;;5037460;28;20112;-72
2023/01/03 08:59:25;;;;;;;13.95;8.93;;;3.40;99.90;;;;;;5038550;28;20033;-72
2023/01/03 09:01:51;;;;;;;14.98;9.20;;;3.40;99.90;;;;;;5058423;28;20092;-73
2023/01/03 09:04:16;;;;;;;13.50;9.38;;;3.30;99.90;;;;;;5050168;28;20148;-73
2023/01/03 09:06:42;;;;;;;12.80;9.32;;;3.30;99.90;;;;;;5050612;28;20051;-73
2023/01/03 09:09:08;;;;;;;14.05;8.93;;;3.20;99.90;;;;;;5047333;28;20045;-73
2023/01/03 09:11:34;;;;;;;14.48;9.10;;;3.20;99.90;;;;;;5035819;28;20094;-73
2023/01/03 09:14:00;;;;;;;14.48;8.10;;;3.20;99.90;;;;;;5035671;28;20040;-73
2023/01/03 09:16:25;;;;;;;13.50;9.07;;;3.20;99.90;;;;;;5052382;28;20604;-73
2023/01/03 09:18:51;;;;;;;13.77;8.13;;;3.30;99.90;;;;;;5034826;28;20057;-73
2023/01/03 09:21:16;;;;;;;13.93;9.18;;;3.30;99.90;;;;;;5034587;28;20033;-73
2023/01/03 09:23:42;;;;;;;13.98;7.88;;;3.40;99.90;;;;;;5035179;28;20037;-73
2023/01/03 09:26:07;;;;;;;15.00;9.50;;;3.40;99.90;;;;;;5025769;28;20041;-73
2023/01/03 09:28:33;;;;;;;14.77;9.52;;;3.50;99.90;;;;;;5050978;28;20466;-73
2023/01/03 09:30:59;;;;;;;15.70;10.00;;;3.40;99.90;;;;;;5050988;28;20040;-73
2023/01/03 09:33:25;;;;;;;15.13;10.18;;;3.40;99.90;;;;;;5050734;28;20043;-73
2023/01/03 09:35:53;;;;;;;17.73;10.98;;;3.50;99.90;;;;;;5050011;28;20029;-73
2023/01/03 09:38:19;;;;;;;18.02;11.30;;;3.40;99.90;;;;;;5031305;28;20546;-73
2023/01/03 09:40:46;;;;;;;17.27;10.73;;;3.50;99.90;;;;;;5051230;28;20439;-73
2023/01/03 09:43:19;;;;;;;20.15;13.13;;;3.40;99.90;;;;;;5045227;28;20040;-73
2023/01/03 09:45:49;;;;;;;20.58;12.13;;;3.50;99.90;;;;;;5031534;28;20331;-73
2023/01/03 09:48:32;;;;;;;25.42;12.95;;;3.60;99.90;;;;;;5035296;28;20465;-73
2023/01/03 09:50:58;;;;;;;33.22;14.25;;;3.60;99.90;;;;;;5048108;28;20040;-73
2023/01/03 10:05:20;;;;;;;23.58;15.00;;;4.10;99.90;;;;;;5031974;28;20089;-73
2023/01/03 10:08:21;;;;;;;26.25;15.43;;;4.20;99.90;;;;;;5048699;28;20049;-73
2023/01/03 10:11:07;;;;;;;26.42;16.05;;;4.20;99.90;;;;;;5034802;28;20132;-73
2023/01/03 10:13:44;;;;;;;26.17;15.35;;;4.20;99.90;;;;;;5049250;28;20044;-73
2023/01/03 10:16:22;;;;;;;26.52;16.27;;;4.30;99.90;;;;;;5049781;28;20044;-73
2023/01/03 10:19:03;;;;;;;26.55;14.43;;;4.40;99.90;;;;;;5039593;28;20044;-72
2023/01/03 10:21:45;;;;;;;29.08;16.48;;;4.50;99.90;;;;;;5050626;28;20049;-73
2023/01/03 10:24:37;;;;;;;29.17;17.40;;;4.50;99.90;;;;;;5034828;28;20042;-73
2023/01/03 10:27:20;;;;;;;31.77;18.52;;;4.40;99.90;;;;;;5029879;28;20071;-73
2023/01/03 10:29:49;;;;;;;32.72;16.98;;;4.40;99.90;;;;;;5043374;28;20074;-73
2023/01/03 10:32:24;;;;;;;35.35;19.88;;;4.50;99.90;;;;;;5032664;28;20049;-73
2023/01/03 10:35:15;;;;;;;32.63;19.30;;;4.50;99.90;;;;;;5060673;28;20513;-73
2023/01/03 10:37:41;;;;;;;35.85;20.30;;;4.60;99.90;;;;;;5033256;28;20044;-73
2023/01/03 10:40:07;;;;;;;36.58;20.23;;;4.60;99.90;;;;;;5042305;28;20045;-73
2023/01/03 10:42:34;;;;;;;33.55;19.48;;;4.70;99.90;;;;;;5023516;28;20401;-73
2023/01/03 10:45:04;;;;;;;33.40;19.73;;;4.80;99.90;;;;;;5029773;28;20124;-73
2023/01/03 10:47:29;;;;;;;31.08;15.95;;;4.90;99.90;;;;;;5033543;28;20033;-73
2023/01/03 10:50:00;;;;;;;35.67;20.38;;;5.00;99.90;;;;;;5032209;28;20059;-73
2023/01/03 10:52:32;;;;;;;38.00;22.25;;;5.10;99.90;;;;;;5034372;28;20029;-74
2023/01/03 10:55:15;;;;;;;39.10;19.92;;;5.00;99.90;;;;;;5021868;28;20044;-73
2023/01/03 10:58:01;;;;;;;38.50;19.15;;;5.00;99.90;;;;;;5044279;28;20034;-74
2023/01/03 11:00:33;;;;;;;36.80;20.38;;;5.20;99.90;;;;;;5017335;28;20079;-73
2023/01/03 11:03:10;;;;;;;38.33;21.23;;;5.10;99.90;;;;;;5032764;28;20102;-73
2023/01/03 11:05:36;;;;;;;33.83;19.52;;;5.10;99.90;;;;;;5052311;28;20103;-74
2023/01/03 11:08:05;;;;;;;38.03;21.63;;;5.20;99.90;;;;;;5036449;28;20044;-73
2023/01/03 11:10:37;;;;;;;39.58;22.25;;;5.30;99.90;;;;;;5053958;28;20037;-73
2023/01/03 11:13:38;;;;;;;35.00;19.75;;;5.30;99.90;;;;;;5061736;28;20041;-74
2023/01/03 11:16:13;;;;;;;27.20;14.32;;;5.50;99.90;;;;;;5034765;28;20375;-74
2023/01/03 11:18:40;;;;;;;36.88;20.77;;;5.60;99.90;;;;;;5035365;28;20095;-74
2023/01/03 11:21:11;;;;;;;35.15;19.52;;;5.60;99.90;;;;;;5036865;28;20574;-74
2023/01/03 11:24:14;;;;;;;32.95;18.08;;;5.60;99.90;;;;;;5043103;28;20041;-74
2023/01/03 11:27:10;;;;;;;32.35;17.13;;;5.60;99.90;;;;;;5051489;28;20041;-74
2023/01/03 11:29:46;;;;;;;38.97;22.67;;;5.70;99.90;;;;;;5035202;28;20607;-73
2023/01/03 11:32:50;;;;;;;39.05;22.83;;;5.70;99.90;;;;;;5053593;28;20044;-74
2023/01/03 11:35:33;;;;;;;31.80;18.38;;;5.70;99.90;;;;;;5053347;28;20055;-74
2023/01/03 11:38:26;;;;;;;32.67;18.77;;;5.70;99.90;;;;;;5041434;28;20079;-74
2023/01/03 11:41:18;;;;;;;35.33;17.25;;;5.70;99.90;;;;;;5036506;28;20115;-73
2023/01/03 11:44:02;;;;;;;35.55;19.20;;;5.70;99.90;;;;;;5052492;28;20497;-74
2023/01/03 11:46:55;;;;;;;33.15;19.95;;;5.80;99.90;;;;;;5036401;28;20064;-73
2023/01/03 11:49:51;;;;;;;36.35;20.00;;;5.80;99.90;;;;;;5053278;28;20037;-73
2023/01/03 11:52:24;;;;;;;34.08;19.65;;;5.90;99.90;;;;;;5050070;28;20049;-74
2023/01/03 11:55:17;;;;;;;35.70;19.52;;;5.90;99.90;;;;;;5024263;28;20489;-73
2023/01/03 11:58:06;;;;;;;33.80;19.23;;;6.00;99.90;;;;;;5044804;28;20037;-73
2023/01/03 12:01:02;;;;;;;33.67;18.70;;;6.00;99.90;;;;;;5045378;28;20048;-74
2023/01/03 12:03:34;;;;;;;33.40;18.38;;;6.10;99.90;;;;;;5024800;28;20486;-73
2023/01/03 12:06:09;;;;;;;30.88;18.25;;;6.10;99.90;;;;;;5036858;28;20493;-74
2023/01/03 12:08:44;;;;;;;35.67;17.65;;;6.20;99.90;;;;;;5051324;28;20136;-74
2023/01/03 12:11:42;;;;;;;28.90;16.67;;;6.20;99.90;;;;;;5042084;28;20040;-73
2023/01/03 12:14:21;;;;;;;28.55;17.20;;;6.30;99.90;;;;;;5051175;28;20048;-74
2023/01/03 12:16:55;;;;;;;33.03;17.73;;;6.30;99.90;;;;;;5034995;28;20040;-74
2023/01/03 12:19:52;;;;;;;25.58;14.88;;;6.30;99.90;;;;;;5051878;28;20044;-74
2023/01/03 12:22:34;;;;;;;22.80;13.48;;;6.40;99.90;;;;;;5030387;28;20048;-74
2023/01/03 12:25:13;;;;;;;22.17;13.57;;;6.40;99.90;;;;;;5026528;28;20071;-73
2023/01/03 12:27:47;;;;;;;23.25;13.05;;;6.50;99.90;;;;;;5053747;28;20132;-73
2023/01/03 12:30:36;;;;;;;25.30;14.55;;;6.50;99.90;;;;;;5036320;28;20098;-73
2023/01/03 12:33:37;;;;;;;23.85;13.63;;;6.50;99.90;;;;;;5037273;28;20388;-74
2023/01/03 12:36:30;;;;;;;22.95;12.38;;;6.60;99.90;;;;;;5053062;28;20107;-74
2023/01/03 12:39:18;;;;;;;22.00;13.38;;;6.60;99.90;;;;;;5036212;28;20033;-73
2023/01/03 12:41:54;;;;;;;23.63;14.52;;;6.60;99.90;;;;;;5024303;28;20405;-73
2023/01/03 12:44:27;;;;;;;24.17;14.88;;;6.50;99.90;;;;;;5031856;28;20393;-73
2023/01/03 12:46:55;;;;;;;21.23;13.43;;;6.60;99.90;;;;;;5036015;28;20425;-74
2023/01/03 12:49:34;;;;;;;24.23;14.25;;;6.60;99.90;;;;;;5053428;28;20440;-73
2023/01/03 12:51:59;;;;;;;21.83;13.38;;;6.60;99.90;;;;;;5036873;28;20126;-73
2023/01/03 12:54:34;;;;;;;20.83;13.15;;;6.60;99.90;;;;;;5035840;28;20069;-73
2023/01/03 12:57:10;;;;;;;21.55;13.48;;;6.70;99.90;;;;;;5036621;28;20037;-74
2023/01/03 12:59:49;;;;;;;21.15;12.60;;;6.80;99.90;;;;;;5052943;28;20041;-73
2023/01/03 13:02:23;;;;;;;23.65;12.63;;;6.70;99.90;;;;;;5030784;28;20033;-73
2023/01/03 13:04:55;;;;;;;21.65;13.70;;;6.80;99.90;;;;;;5017509;28;20045;-73
2023/01/03 13:07:32;;;;;;;21.63;12.35;;;6.90;99.90;;;;;;5038983;28;20041;-73
2023/01/03 13:10:06;;;;;;;20.23;12.75;;;6.80;99.90;;;;;;5069689;28;20099;-73
2023/01/03 13:12:36;;;;;;;20.15;10.77;;;6.80;99.90;;;;;;5051839;28;20386;-74
2023/01/03 13:15:01;;;;;;;21.55;12.52;;;6.80;99.90;;;;;;5029741;28;20044;-74
2023/01/03 13:17:28;;;;;;;19.38;11.27;;;6.80;99.90;;;;;;5032891;28;20128;-74
2023/01/03 13:20:17;;;;;;;18.58;11.98;;;6.90;99.90;;;;;;5046241;28;20045;-74
2023/01/03 13:22:53;;;;;;;21.77;11.05;;;6.90;99.90;;;;;;5066508;28;20423;-74
2023/01/03 13:25:25;;;;;;;20.15;10.60;;;6.90;99.90;;;;;;5037393;28;20072;-73
2023/01/03 13:27:52;;;;;;;18.77;9.68;;;6.90;99.90;;;;;;5049599;28;20043;-74
2023/01/03 13:30:29;;;;;;;19.58;10.75;;;6.90;99.90;;;;;;5034688;28;20485;-73
2023/01/03 13:33:10;;;;;;;17.75;11.50;;;7.00;99.90;;;;;;5031912;28;20040;-74
2023/01/03 13:35:45;;;;;;;20.02;11.25;;;7.00;99.90;;;;;;5034322;28;20037;-74
2023/01/03 13:38:25;;;;;;;21.63;12.75;;;7.00;99.90;;;;;;5051254;28;20520;-74
2023/01/03 13:40:57;;;;;;;18.83;11.43;;;7.00;99.90;;;;;;5033227;28;20071;-73
2023/01/03 13:43:30;;;;;;;19.98;11.68;;;6.90;99.90;;;;;;5044529;28;20389;-74
2023/01/03 13:45:58;;;;;;;20.75;11.55;;;7.00;99.90;;;;;;5027475;28;20397;-74
2023/01/03 13:48:28;;;;;;;20.92;12.15;;;7.00;99.90;;;;;;5050791;28;20466;-74
2023/01/03 13:51:13;;;;;;;21.02;12.25;;;7.00;99.90;;;;;;5032518;28;20496;-74
2023/01/03 13:54:01;;;;;;;21.42;11.00;;;6.90;99.90;;;;;;5028007;28;20065;-73
2023/01/03 13:56:29;;;;;;;20.50;12.73;;;7.00;99.90;;;;;;5050876;28;20041;-74
2023/01/03 13:59:18;;;;;;;19.73;11.68;;;7.10;99.90;;;;;;5027826;28;20123;-73
2023/01/03 14:01:58;;;;;;;19.10;10.70;;;7.00;99.90;;;;;;5034451;28;20029;-74
2023/01/03 14:04:39;;;;;;;18.85;11.43;;;7.10;99.90;;;;;;5033866;28;20056;-73